sensor_id;sensor_type;location;lat;lon;timestamp;pressure;altitude;pressure_sealevel;temperature;humidity
54144;BME280;40050;47.324;18.792;2022-10-16T00:00:13;1008.20;;;17.08;61.08
54144;BME280;40050;47.324;18.792;2022-10-16T00:02:14;1008.18;;;17.01;61.14
54144;BME280;40050;47.324;18.792;2022-10-16T00:04:15;1008.23;;;16.98;61.04
54144;BME280;40050;47.324;18.792;2022-10-16T00:06:16;1008.18;;;16.90;61.02
54144;BME280;40050;47.324;18.792;2022-10-16T00:08:18;1008.19;;;16.87;60.96
54144;BME280;40050;47.324;18.792;2022-10-16T00:10:19;1008.09;;;16.75;60.96
54144;BME280;40050;47.324;18.792;2022-10-16T00:12:20;1008.18;;;16.81;60.92
54144;BME280;40050;47.324;18.792;2022-10-16T00:14:21;1008.15;;;16.75;60.90
54144;BME280;40050;47.324;18.792;2022-10-16T00:16:22;1008.13;;;16.72;60.92
54144;BME280;40050;47.324;18.792;2022-10-16T00:18:23;1008.10;;;16.66;60.90
54144;BME280;40050;47.324;18.792;2022-10-16T00:20:24;1008.17;;;16.63;60.90
54144;BME280;40050;47.324;18.792;2022-10-16T00:22:25;1008.19;;;16.61;60.84
54144;BME280;40050;47.324;18.792;2022-10-16T00:24:27;1008.22;;;16.57;60.80
54144;BME280;40050;47.324;18.792;2022-10-16T00:26:29;1008.25;;;16.53;60.82
54144;BME280;40050;47.324;18.792;2022-10-16T00:28:31;1008.27;;;16.49;60.99
54144;BME280;40050;47.324;18.792;2022-10-16T00:30:32;1008.19;;;16.43;61.05
54144;BME280;40050;47.324;18.792;2022-10-16T00:32:33;1008.15;;;16.35;61.10
54144;BME280;40050;47.324;18.792;2022-10-16T00:34:33;1008.04;;;16.21;61.20
54144;BME280;40050;47.324;18.792;2022-10-16T00:36:34;1008.24;;;16.22;61.35
54144;BME280;40050;47.324;18.792;2022-10-16T00:38:35;1008.30;;;16.16;61.41
54144;BME280;40050;47.324;18.792;2022-10-16T00:40:36;1008.29;;;16.09;61.44
54144;BME280;40050;47.324;18.792;2022-10-16T00:42:37;1008.26;;;15.99;61.63
54144;BME280;40050;47.324;18.792;2022-10-16T00:44:42;1008.25;;;15.92;61.65
54144;BME280;40050;47.324;18.792;2022-10-16T00:46:43;1008.31;;;15.87;61.80
54144;BME280;40050;47.324;18.792;2022-10-16T00:48:59;1008.35;;;15.86;61.86
54144;BME280;40050;47.324;18.792;2022-10-16T00:51:00;1008.39;;;15.80;61.93
54144;BME280;40050;47.324;18.792;2022-10-16T00:53:02;1008.32;;;15.76;62.01
54144;BME280;40050;47.324;18.792;2022-10-16T00:55:03;1008.33;;;15.72;62.02
54144;BME280;40050;47.324;18.792;2022-10-16T00:57:05;1008.35;;;15.67;62.09
54144;BME280;40050;47.324;18.792;2022-10-16T00:59:19;1008.36;;;15.64;62.19
54144;BME280;40050;47.324;18.792;2022-10-16T01:01:20;1008.41;;;15.56;62.32
54144;BME280;40050;47.324;18.792;2022-10-16T01:03:22;1008.46;;;15.52;62.30
54144;BME280;40050;47.324;18.792;2022-10-16T01:05:25;1008.43;;;15.45;62.34
54144;BME280;40050;47.324;18.792;2022-10-16T01:09:52;1008.43;;;15.29;62.58
54144;BME280;40050;47.324;18.792;2022-10-16T01:12:02;1008.50;;;15.24;62.64
54144;BME280;40050;47.324;18.792;2022-10-16T01:14:10;1008.48;;;15.14;62.68
54144;BME280;40050;47.324;18.792;2022-10-16T01:16:13;1008.53;;;15.08;62.79
54144;BME280;40050;47.324;18.792;2022-10-16T01:18:18;1008.53;;;15.00;62.90
54144;BME280;40050;47.324;18.792;2022-10-16T01:20:21;1008.29;;;14.83;62.89
54144;BME280;40050;47.324;18.792;2022-10-16T01:22:28;1008.61;;;14.95;62.87
54144;BME280;40050;47.324;18.792;2022-10-16T01:24:31;1008.62;;;14.89;62.93
54144;BME280;40050;47.324;18.792;2022-10-16T01:28:51;1008.66;;;14.82;62.82
54144;BME280;40050;47.324;18.792;2022-10-16T01:30:53;1008.68;;;14.77;62.79
54144;BME280;40050;47.324;18.792;2022-10-16T01:33:02;1008.67;;;14.72;62.88
54144;BME280;40050;47.324;18.792;2022-10-16T01:35:09;1008.66;;;14.70;62.93
54144;BME280;40050;47.324;18.792;2022-10-16T01:37:12;1008.64;;;14.70;62.91
54144;BME280;40050;47.324;18.792;2022-10-16T01:39:15;1008.49;;;14.55;62.95
54144;BME280;40050;47.324;18.792;2022-10-16T01:41:54;1008.67;;;14.62;62.98
54144;BME280;40050;47.324;18.792;2022-10-16T01:43:40;1008.60;;;14.59;63.09
54144;BME280;40050;47.324;18.792;2022-10-16T01:45:44;1008.62;;;14.58;63.26
54144;BME280;40050;47.324;18.792;2022-10-16T01:47:46;1008.62;;;14.55;63.20
54144;BME280;40050;47.324;18.792;2022-10-16T01:49:48;1008.66;;;14.53;63.26
54144;BME280;40050;47.324;18.792;2022-10-16T01:51:50;1008.67;;;14.49;63.28
54144;BME280;40050;47.324;18.792;2022-10-16T01:53:53;1008.70;;;14.49;63.31
54144;BME280;40050;47.324;18.792;2022-10-16T01:55:55;1008.72;;;14.46;63.40
54144;BME280;40050;47.324;18.792;2022-10-16T01:57:59;1008.68;;;14.41;63.42
54144;BME280;40050;47.324;18.792;2022-10-16T02:00:04;1008.72;;;14.40;63.52
54144;BME280;40050;47.324;18.792;2022-10-16T02:02:08;1008.75;;;14.35;63.63
54144;BME280;40050;47.324;18.792;2022-10-16T02:04:17;1008.73;;;14.31;63.70
54144;BME280;40050;47.324;18.792;2022-10-16T02:06:19;1008.73;;;14.26;63.85
54144;BME280;40050;47.324;18.792;2022-10-16T02:08:21;1008.71;;;14.25;63.74
54144;BME280;40050;47.324;18.792;2022-10-16T02:10:23;1008.77;;;14.23;63.88
54144;BME280;40050;47.324;18.792;2022-10-16T02:12:28;1008.79;;;14.22;63.98
54144;BME280;40050;47.324;18.792;2022-10-16T02:14:30;1008.82;;;14.15;64.22
54144;BME280;40050;47.324;18.792;2022-10-16T02:16:35;1008.59;;;13.92;64.41
54144;BME280;40050;47.324;18.792;2022-10-16T02:18:36;1008.91;;;14.04;64.49
54144;BME280;40050;47.324;18.792;2022-10-16T02:20:55;1008.91;;;13.98;64.60
54144;BME280;40050;47.324;18.792;2022-10-16T02:22:58;1008.91;;;13.95;64.66
54144;BME280;40050;47.324;18.792;2022-10-16T02:25:02;1008.97;;;13.94;64.63
54144;BME280;40050;47.324;18.792;2022-10-16T02:27:17;1008.91;;;13.92;64.68
54144;BME280;40050;47.324;18.792;2022-10-16T02:29:20;1008.98;;;13.89;64.72
54144;BME280;40050;47.324;18.792;2022-10-16T02:31:26;1008.99;;;13.83;64.78
54144;BME280;40050;47.324;18.792;2022-10-16T02:33:27;1008.97;;;13.80;64.82
54144;BME280;40050;47.324;18.792;2022-10-16T02:35:29;1008.98;;;13.81;64.80
54144;BME280;40050;47.324;18.792;2022-10-16T02:37:31;1009.04;;;13.82;64.71
54144;BME280;40050;47.324;18.792;2022-10-16T02:39:33;1009.04;;;13.79;64.63
54144;BME280;40050;47.324;18.792;2022-10-16T02:41:34;1009.02;;;13.78;64.68
54144;BME280;40050;47.324;18.792;2022-10-16T02:43:35;1009.10;;;13.79;64.71
54144;BME280;40050;47.324;18.792;2022-10-16T02:45:36;1009.03;;;13.69;64.73
54144;BME280;40050;47.324;18.792;2022-10-16T02:47:37;1008.92;;;13.68;64.77
54144;BME280;40050;47.324;18.792;2022-10-16T02:49:38;1008.78;;;13.57;64.91
54144;BME280;40050;47.324;18.792;2022-10-16T02:51:39;1009.04;;;13.73;65.02
54144;BME280;40050;47.324;18.792;2022-10-16T02:53:40;1009.02;;;13.70;65.01
54144;BME280;40050;47.324;18.792;2022-10-16T02:55:40;1009.08;;;13.66;65.10
54144;BME280;40050;47.324;18.792;2022-10-16T02:57:41;1009.08;;;13.65;65.19
54144;BME280;40050;47.324;18.792;2022-10-16T02:59:42;1009.07;;;13.62;65.21
54144;BME280;40050;47.324;18.792;2022-10-16T03:01:43;1009.12;;;13.62;65.23
54144;BME280;40050;47.324;18.792;2022-10-16T03:03:44;1009.09;;;13.60;65.26
54144;BME280;40050;47.324;18.792;2022-10-16T03:05:45;1009.08;;;13.56;65.34
54144;BME280;40050;47.324;18.792;2022-10-16T03:07:46;1009.11;;;13.56;65.39
54144;BME280;40050;47.324;18.792;2022-10-16T03:09:47;1009.12;;;13.54;65.51
54144;BME280;40050;47.324;18.792;2022-10-16T03:11:48;1009.09;;;13.51;65.42
54144;BME280;40050;47.324;18.792;2022-10-16T03:13:49;1008.77;;;13.31;65.42
54144;BME280;40050;47.324;18.792;2022-10-16T03:15:49;1009.14;;;13.46;65.42
54144;BME280;40050;47.324;18.792;2022-10-16T03:17:50;1009.23;;;13.45;65.41
54144;BME280;40050;47.324;18.792;2022-10-16T03:19:51;1009.24;;;13.42;65.40
54144;BME280;40050;47.324;18.792;2022-10-16T03:21:52;1009.26;;;13.42;65.45
54144;BME280;40050;47.324;18.792;2022-10-16T03:23:53;1009.19;;;13.39;65.43
54144;BME280;40050;47.324;18.792;2022-10-16T03:25:54;1009.23;;;13.37;65.55
54144;BME280;40050;47.324;18.792;2022-10-16T03:27:55;1009.23;;;13.36;65.56
54144;BME280;40050;47.324;18.792;2022-10-16T03:29:56;1009.24;;;13.34;65.71
54144;BME280;40050;47.324;18.792;2022-10-16T03:31:57;1009.23;;;13.30;65.65
54144;BME280;40050;47.324;18.792;2022-10-16T03:33:58;1009.32;;;13.30;65.60
54144;BME280;40050;47.324;18.792;2022-10-16T03:35:59;1009.41;;;13.29;65.68
54144;BME280;40050;47.324;18.792;2022-10-16T03:38:00;1009.43;;;13.26;65.69
54144;BME280;40050;47.324;18.792;2022-10-16T03:40:01;1009.40;;;13.22;65.66
54144;BME280;40050;47.324;18.792;2022-10-16T03:42:01;1009.45;;;13.26;65.67
54144;BME280;40050;47.324;18.792;2022-10-16T03:44:02;1009.47;;;13.24;65.75
54144;BME280;40050;47.324;18.792;2022-10-16T03:46:03;1009.48;;;13.22;65.75
54144;BME280;40050;47.324;18.792;2022-10-16T03:48:04;1009.50;;;13.18;65.88
54144;BME280;40050;47.324;18.792;2022-10-16T03:50:06;1009.56;;;13.19;65.73
54144;BME280;40050;47.324;18.792;2022-10-16T03:52:07;1009.55;;;13.16;65.62
54144;BME280;40050;47.324;18.792;2022-10-16T03:54:09;1009.48;;;13.04;65.61
54144;BME280;40050;47.324;18.792;2022-10-16T03:56:10;1009.66;;;13.10;65.61
54144;BME280;40050;47.324;18.792;2022-10-16T03:58:11;1009.70;;;13.09;65.60
54144;BME280;40050;47.324;18.792;2022-10-16T04:00:12;1009.65;;;13.04;65.59
54144;BME280;40050;47.324;18.792;2022-10-16T04:02:13;1009.70;;;13.01;65.54
54144;BME280;40050;47.324;18.792;2022-10-16T04:04:14;1009.73;;;12.99;65.53
54144;BME280;40050;47.324;18.792;2022-10-16T04:06:15;1009.70;;;12.98;65.57
54144;BME280;40050;47.324;18.792;2022-10-16T04:08:16;1009.74;;;12.98;65.55
54144;BME280;40050;47.324;18.792;2022-10-16T04:10:17;1009.77;;;12.99;65.51
54144;BME280;40050;47.324;18.792;2022-10-16T04:12:18;1009.67;;;12.91;65.52
54144;BME280;40050;47.324;18.792;2022-10-16T04:14:21;1009.73;;;12.94;65.42
54144;BME280;40050;47.324;18.792;2022-10-16T04:16:22;1009.71;;;12.92;65.33
54144;BME280;40050;47.324;18.792;2022-10-16T04:18:23;1009.65;;;12.90;65.34
54144;BME280;40050;47.324;18.792;2022-10-16T04:20:24;1009.62;;;12.87;65.31
54144;BME280;40050;47.324;18.792;2022-10-16T04:22:25;1009.61;;;12.89;65.42
54144;BME280;40050;47.324;18.792;2022-10-16T04:24:26;1009.68;;;12.85;65.50
54144;BME280;40050;47.324;18.792;2022-10-16T04:26:27;1009.35;;;12.62;65.66
54144;BME280;40050;47.324;18.792;2022-10-16T04:28:28;1009.48;;;12.69;65.87
54144;BME280;40050;47.324;18.792;2022-10-16T04:30:29;1009.59;;;12.74;66.08
54144;BME280;40050;47.324;18.792;2022-10-16T04:32:30;1009.64;;;12.67;66.24
54144;BME280;40050;47.324;18.792;2022-10-16T04:34:31;1009.71;;;12.68;66.34
54144;BME280;40050;47.324;18.792;2022-10-16T04:36:32;1009.67;;;12.65;66.32
54144;BME280;40050;47.324;18.792;2022-10-16T04:38:33;1009.69;;;12.65;66.29
54144;BME280;40050;47.324;18.792;2022-10-16T04:40:33;1009.69;;;12.65;66.40
54144;BME280;40050;47.324;18.792;2022-10-16T04:42:34;1009.72;;;12.63;66.33
54144;BME280;40050;47.324;18.792;2022-10-16T04:44:35;1009.73;;;12.61;66.35
54144;BME280;40050;47.324;18.792;2022-10-16T04:46:36;1009.74;;;12.60;66.44
54144;BME280;40050;47.324;18.792;2022-10-16T04:48:37;1009.72;;;12.58;66.41
54144;BME280;40050;47.324;18.792;2022-10-16T04:50:38;1009.78;;;12.59;66.37
54144;BME280;40050;47.324;18.792;2022-10-16T04:52:39;1009.78;;;12.58;66.31
54144;BME280;40050;47.324;18.792;2022-10-16T04:54:40;1009.71;;;12.57;66.29
54144;BME280;40050;47.324;18.792;2022-10-16T04:56:41;1009.73;;;12.55;66.38
54144;BME280;40050;47.324;18.792;2022-10-16T04:58:41;1009.81;;;12.56;66.33
54144;BME280;40050;47.324;18.792;2022-10-16T05:00:43;1009.86;;;12.55;66.44
54144;BME280;40050;47.324;18.792;2022-10-16T05:02:44;1009.88;;;12.53;66.53
54144;BME280;40050;47.324;18.792;2022-10-16T05:04:45;1009.85;;;12.51;66.53
54144;BME280;40050;47.324;18.792;2022-10-16T05:06:47;1009.88;;;12.50;66.55
54144;BME280;40050;47.324;18.792;2022-10-16T05:08:48;1009.87;;;12.47;66.57
54144;BME280;40050;47.324;18.792;2022-10-16T05:10:49;1009.87;;;12.46;66.62
54144;BME280;40050;47.324;18.792;2022-10-16T05:12:50;1009.83;;;12.42;66.65
54144;BME280;40050;47.324;18.792;2022-10-16T05:14:51;1009.91;;;12.45;66.69
54144;BME280;40050;47.324;18.792;2022-10-16T05:16:52;1009.89;;;12.41;66.77
54144;BME280;40050;47.324;18.792;2022-10-16T05:18:52;1009.97;;;12.43;66.81
54144;BME280;40050;47.324;18.792;2022-10-16T05:20:53;1009.90;;;12.40;66.95
54144;BME280;40050;47.324;18.792;2022-10-16T05:22:54;1009.97;;;12.41;67.06
54144;BME280;40050;47.324;18.792;2022-10-16T05:24:55;1009.94;;;12.38;67.18
54144;BME280;40050;47.324;18.792;2022-10-16T05:26:56;1009.93;;;12.35;67.21
54144;BME280;40050;47.324;18.792;2022-10-16T05:28:57;1009.96;;;12.35;67.29
54144;BME280;40050;47.324;18.792;2022-10-16T05:30:58;1009.96;;;12.36;67.37
54144;BME280;40050;47.324;18.792;2022-10-16T05:32:59;1010.02;;;12.37;67.45
54144;BME280;40050;47.324;18.792;2022-10-16T05:35:00;1009.68;;;12.17;67.51
54144;BME280;40050;47.324;18.792;2022-10-16T05:37:01;1009.99;;;12.33;67.57
54144;BME280;40050;47.324;18.792;2022-10-16T05:39:02;1009.93;;;12.29;67.59
54144;BME280;40050;47.324;18.792;2022-10-16T05:41:04;1009.97;;;12.30;67.66
54144;BME280;40050;47.324;18.792;2022-10-16T05:43:05;1010.12;;;12.36;67.83
54144;BME280;40050;47.324;18.792;2022-10-16T05:45:06;1010.17;;;12.37;67.92
54144;BME280;40050;47.324;18.792;2022-10-16T05:47:07;1010.20;;;12.39;68.11
54144;BME280;40050;47.324;18.792;2022-10-16T05:49:08;1010.25;;;12.38;68.26
54144;BME280;40050;47.324;18.792;2022-10-16T05:51:10;1010.21;;;12.38;68.31
54144;BME280;40050;47.324;18.792;2022-10-16T05:53:11;1010.22;;;12.39;68.47
54144;BME280;40050;47.324;18.792;2022-10-16T05:55:12;1010.25;;;12.41;68.51
54144;BME280;40050;47.324;18.792;2022-10-16T05:57:13;1010.18;;;12.43;68.81
54144;BME280;40050;47.324;18.792;2022-10-16T05:59:14;1010.23;;;12.46;69.35
54144;BME280;40050;47.324;18.792;2022-10-16T06:01:16;1009.98;;;12.33;69.67
54144;BME280;40050;47.324;18.792;2022-10-16T06:03:17;1010.34;;;12.55;70.07
54144;BME280;40050;47.324;18.792;2022-10-16T06:05:18;1010.40;;;12.60;70.06
54144;BME280;40050;47.324;18.792;2022-10-16T06:07:19;1010.42;;;12.67;69.92
54144;BME280;40050;47.324;18.792;2022-10-16T06:09:20;1010.43;;;12.69;70.04
54144;BME280;40050;47.324;18.792;2022-10-16T06:11:21;1010.36;;;12.68;70.18
54144;BME280;40050;47.324;18.792;2022-10-16T06:13:22;1010.48;;;12.75;70.05
54144;BME280;40050;47.324;18.792;2022-10-16T06:15:23;1010.54;;;12.79;70.22
54144;BME280;40050;47.324;18.792;2022-10-16T06:17:24;1010.56;;;12.85;70.32
54144;BME280;40050;47.324;18.792;2022-10-16T06:19:25;1010.56;;;12.88;70.24
54144;BME280;40050;47.324;18.792;2022-10-16T06:21:27;1010.65;;;12.96;70.16
54144;BME280;40050;47.324;18.792;2022-10-16T06:23:28;1010.71;;;13.05;70.06
54144;BME280;40050;47.324;18.792;2022-10-16T06:25:32;1010.73;;;13.13;70.06
54144;BME280;40050;47.324;18.792;2022-10-16T06:27:33;1010.68;;;13.20;70.04
54144;BME280;40050;47.324;18.792;2022-10-16T06:29:34;1010.74;;;13.29;70.02
54144;BME280;40050;47.324;18.792;2022-10-16T06:31:35;1010.73;;;13.36;69.93
54144;BME280;40050;47.324;18.792;2022-10-16T06:33:36;1010.78;;;13.45;69.90
54144;BME280;40050;47.324;18.792;2022-10-16T06:35:37;1010.79;;;13.56;69.57
54144;BME280;40050;47.324;18.792;2022-10-16T06:37:38;1010.77;;;13.63;69.20
54144;BME280;40050;47.324;18.792;2022-10-16T06:39:39;1010.79;;;13.70;69.06
54144;BME280;40050;47.324;18.792;2022-10-16T06:41:40;1010.90;;;13.83;68.95
54144;BME280;40050;47.324;18.792;2022-10-16T06:43:41;1010.97;;;13.90;68.98
54144;BME280;40050;47.324;18.792;2022-10-16T06:45:42;1010.92;;;14.00;68.43
54144;BME280;40050;47.324;18.792;2022-10-16T06:47:43;1010.94;;;14.13;68.11
54144;BME280;40050;47.324;18.792;2022-10-16T06:49:44;1010.94;;;14.22;66.79
54144;BME280;40050;47.324;18.792;2022-10-16T06:51:44;1010.99;;;14.29;66.26
54144;BME280;40050;47.324;18.792;2022-10-16T06:53:46;1011.04;;;14.38;65.37
54144;BME280;40050;47.324;18.792;2022-10-16T06:55:47;1011.06;;;14.42;65.22
54144;BME280;40050;47.324;18.792;2022-10-16T06:57:48;1011.11;;;14.54;64.58
54144;BME280;40050;47.324;18.792;2022-10-16T06:59:49;1011.08;;;14.58;64.21
54144;BME280;40050;47.324;18.792;2022-10-16T07:01:50;1011.06;;;14.66;64.35
54144;BME280;40050;47.324;18.792;2022-10-16T07:03:51;1011.11;;;14.82;64.38
54144;BME280;40050;47.324;18.792;2022-10-16T07:05:52;1011.19;;;14.96;63.36
54144;BME280;40050;47.324;18.792;2022-10-16T07:07:53;1011.17;;;15.01;63.22
54144;BME280;40050;47.324;18.792;2022-10-16T07:09:54;1011.15;;;15.16;62.47
54144;BME280;40050;47.324;18.792;2022-10-16T07:11:55;1011.13;;;15.22;62.13
54144;BME280;40050;47.324;18.792;2022-10-16T07:13:55;1011.16;;;15.36;61.97
54144;BME280;40050;47.324;18.792;2022-10-16T07:15:56;1011.14;;;15.45;61.42
54144;BME280;40050;47.324;18.792;2022-10-16T07:17:57;1011.14;;;15.49;61.08
54144;BME280;40050;47.324;18.792;2022-10-16T07:19:58;1011.11;;;15.56;60.87
54144;BME280;40050;47.324;18.792;2022-10-16T07:22:00;1011.21;;;15.74;61.20
54144;BME280;40050;47.324;18.792;2022-10-16T07:24:01;1011.20;;;15.86;60.93
54144;BME280;40050;47.324;18.792;2022-10-16T07:26:02;1011.19;;;15.96;59.87
54144;BME280;40050;47.324;18.792;2022-10-16T07:28:03;1011.19;;;16.07;58.96
54144;BME280;40050;47.324;18.792;2022-10-16T07:30:08;1011.18;;;16.14;59.48
54144;BME280;40050;47.324;18.792;2022-10-16T07:32:09;1011.15;;;16.21;58.72
54144;BME280;40050;47.324;18.792;2022-10-16T07:34:10;1011.20;;;16.34;58.49
54144;BME280;40050;47.324;18.792;2022-10-16T07:36:12;1011.20;;;16.41;58.75
54144;BME280;40050;47.324;18.792;2022-10-16T07:38:13;1011.30;;;16.55;58.19
54144;BME280;40050;47.324;18.792;2022-10-16T07:40:14;1011.28;;;16.65;57.82
54144;BME280;40050;47.324;18.792;2022-10-16T07:42:15;1011.34;;;16.76;58.36
54144;BME280;40050;47.324;18.792;2022-10-16T07:44:16;1011.37;;;16.90;57.37
54144;BME280;40050;47.324;18.792;2022-10-16T07:46:17;1011.41;;;17.02;58.18
54144;BME280;40050;47.324;18.792;2022-10-16T07:48:18;1011.46;;;17.20;56.77
54144;BME280;40050;47.324;18.792;2022-10-16T07:50:19;1011.50;;;17.35;56.05
54144;BME280;40050;47.324;18.792;2022-10-16T07:52:20;1011.45;;;17.47;56.19
54144;BME280;40050;47.324;18.792;2022-10-16T07:54:21;1011.51;;;17.65;56.21
54144;BME280;40050;47.324;18.792;2022-10-16T07:56:21;1011.61;;;17.79;55.27
54144;BME280;40050;47.324;18.792;2022-10-16T07:58:22;1011.61;;;17.91;54.71
54144;BME280;40050;47.324;18.792;2022-10-16T08:00:23;1011.57;;;18.00;53.78
54144;BME280;40050;47.324;18.792;2022-10-16T08:02:24;1011.65;;;18.09;53.84
54144;BME280;40050;47.324;18.792;2022-10-16T08:04:25;1011.69;;;18.22;54.15
54144;BME280;40050;47.324;18.792;2022-10-16T08:06:26;1011.66;;;18.38;53.06
54144;BME280;40050;47.324;18.792;2022-10-16T08:08:27;1011.68;;;18.48;52.55
54144;BME280;40050;47.324;18.792;2022-10-16T08:10:28;1011.73;;;18.62;52.63
54144;BME280;40050;47.324;18.792;2022-10-16T08:12:29;1011.70;;;18.66;51.77
54144;BME280;40050;47.324;18.792;2022-10-16T08:14:30;1011.69;;;18.67;51.46
54144;BME280;40050;47.324;18.792;2022-10-16T08:16:31;1011.71;;;18.76;51.63
54144;BME280;40050;47.324;18.792;2022-10-16T08:18:32;1011.70;;;18.81;51.61
54144;BME280;40050;47.324;18.792;2022-10-16T08:20:33;1011.76;;;18.96;51.76
54144;BME280;40050;47.324;18.792;2022-10-16T08:22:34;1011.74;;;19.08;51.40
54144;BME280;40050;47.324;18.792;2022-10-16T08:24:35;1011.72;;;19.16;50.77
54144;BME280;40050;47.324;18.792;2022-10-16T08:26:36;1011.74;;;19.30;50.84
54144;BME280;40050;47.324;18.792;2022-10-16T08:28:37;1011.78;;;19.45;51.35
54144;BME280;40050;47.324;18.792;2022-10-16T08:30:38;1011.73;;;19.35;50.37
54144;BME280;40050;47.324;18.792;2022-10-16T08:32:39;1011.78;;;19.59;51.24
54144;BME280;40050;47.324;18.792;2022-10-16T08:34:40;1011.82;;;19.71;49.58
54144;BME280;40050;47.324;18.792;2022-10-16T08:36:41;1011.87;;;19.86;49.48
54144;BME280;40050;47.324;18.792;2022-10-16T08:38:42;1011.82;;;19.91;49.47
54144;BME280;40050;47.324;18.792;2022-10-16T08:40:43;1011.80;;;20.04;49.45
54144;BME280;40050;47.324;18.792;2022-10-16T08:42:51;1011.83;;;20.24;48.79
54144;BME280;40050;47.324;18.792;2022-10-16T08:47:48;1011.88;;;20.34;48.54
54144;BME280;40050;47.324;18.792;2022-10-16T08:49:57;1011.85;;;20.49;48.96
54144;BME280;40050;47.324;18.792;2022-10-16T08:51:58;1011.87;;;20.63;48.35
54144;BME280;40050;47.324;18.792;2022-10-16T08:54:01;1011.91;;;20.84;47.58
54144;BME280;40050;47.324;18.792;2022-10-16T08:56:03;1011.96;;;20.95;47.43
54144;BME280;40050;47.324;18.792;2022-10-16T08:58:14;1012.00;;;20.65;46.26
54144;BME280;40050;47.324;18.792;2022-10-16T09:00:15;1011.97;;;20.77;46.35
54144;BME280;40050;47.324;18.792;2022-10-16T09:02:22;1011.96;;;20.87;46.56
54144;BME280;40050;47.324;18.792;2022-10-16T09:06:45;1011.97;;;21.21;46.92
54144;BME280;40050;47.324;18.792;2022-10-16T09:13:23;1012.01;;;21.87;46.50
54144;BME280;40050;47.324;18.792;2022-10-16T09:15:39;1011.97;;;22.23;46.22
54144;BME280;40050;47.324;18.792;2022-10-16T09:17:59;1011.94;;;22.36;45.97
54144;BME280;40050;47.324;18.792;2022-10-16T09:22:21;1012.00;;;22.58;45.36
54144;BME280;40050;47.324;18.792;2022-10-16T09:24:24;1012.05;;;22.71;44.79
54144;BME280;40050;47.324;18.792;2022-10-16T09:26:26;1012.05;;;22.77;44.51
54144;BME280;40050;47.324;18.792;2022-10-16T09:28:26;1012.04;;;22.84;44.65
54144;BME280;40050;47.324;18.792;2022-10-16T09:30:28;1012.06;;;23.00;43.95
54144;BME280;40050;47.324;18.792;2022-10-16T09:32:29;1012.08;;;23.03;43.57
54144;BME280;40050;47.324;18.792;2022-10-16T09:34:33;1011.78;;;22.76;43.13
54144;BME280;40050;47.324;18.792;2022-10-16T09:36:43;1012.02;;;22.81;42.94
54144;BME280;40050;47.324;18.792;2022-10-16T09:38:45;1012.07;;;22.84;43.55
54144;BME280;40050;47.324;18.792;2022-10-16T09:40:46;1012.04;;;22.75;42.85
54144;BME280;40050;47.324;18.792;2022-10-16T09:42:47;1012.06;;;22.75;43.51
54144;BME280;40050;47.324;18.792;2022-10-16T09:44:49;1012.04;;;22.80;43.83
54144;BME280;40050;47.324;18.792;2022-10-16T09:47:00;1012.10;;;22.83;43.06
54144;BME280;40050;47.324;18.792;2022-10-16T09:49:02;1012.12;;;22.86;43.34
54144;BME280;40050;47.324;18.792;2022-10-16T09:51:04;1012.11;;;22.90;43.71
54144;BME280;40050;47.324;18.792;2022-10-16T09:53:12;1012.10;;;22.98;43.25
54144;BME280;40050;47.324;18.792;2022-10-16T09:55:15;1012.12;;;23.00;43.59
54144;BME280;40050;47.324;18.792;2022-10-16T09:57:16;1012.17;;;23.07;44.52
54144;BME280;40050;47.324;18.792;2022-10-16T09:59:20;1012.13;;;23.20;44.17
54144;BME280;40050;47.324;18.792;2022-10-16T10:01:22;1011.92;;;23.07;43.09
54144;BME280;40050;47.324;18.792;2022-10-16T10:03:35;1012.12;;;23.12;42.83
54144;BME280;40050;47.324;18.792;2022-10-16T10:05:37;1012.08;;;23.17;42.97
54144;BME280;40050;47.324;18.792;2022-10-16T10:07:42;1011.99;;;23.14;42.81
54144;BME280;40050;47.324;18.792;2022-10-16T10:09:44;1012.13;;;23.23;42.72
54144;BME280;40050;47.324;18.792;2022-10-16T10:11:47;1012.14;;;23.28;43.26
54144;BME280;40050;47.324;18.792;2022-10-16T10:13:49;1012.16;;;23.22;42.97
54144;BME280;40050;47.324;18.792;2022-10-16T10:15:50;1012.10;;;23.18;42.47
54144;BME280;40050;47.324;18.792;2022-10-16T10:17:52;1012.09;;;23.04;42.71
54144;BME280;40050;47.324;18.792;2022-10-16T10:19:57;1012.07;;;22.61;42.57
54144;BME280;40050;47.324;18.792;2022-10-16T10:21:59;1012.05;;;22.65;43.31
54144;BME280;40050;47.324;18.792;2022-10-16T10:23:59;1012.04;;;22.68;43.45
54144;BME280;40050;47.324;18.792;2022-10-16T10:30:49;1012.01;;;22.67;44.49
54144;BME280;40050;47.324;18.792;2022-10-16T10:35:11;1011.69;;;22.64;43.93
54144;BME280;40050;47.324;18.792;2022-10-16T10:37:37;1011.87;;;22.83;44.01
54144;BME280;40050;47.324;18.792;2022-10-16T10:39:30;1011.90;;;22.86;43.96
54144;BME280;40050;47.324;18.792;2022-10-16T10:44:02;1011.89;;;22.90;43.34
54144;BME280;40050;47.324;18.792;2022-10-16T10:46:05;1011.92;;;22.65;43.10
54144;BME280;40050;47.324;18.792;2022-10-16T10:50:43;1011.88;;;22.58;44.17
54144;BME280;40050;47.324;18.792;2022-10-16T10:52:51;1011.92;;;22.60;43.93
54144;BME280;40050;47.324;18.792;2022-10-16T10:55:05;1011.84;;;22.38;44.21
54144;BME280;40050;47.324;18.792;2022-10-16T10:57:16;1011.87;;;22.46;44.39
54144;BME280;40050;47.324;18.792;2022-10-16T10:59:27;1011.91;;;22.45;44.05
54144;BME280;40050;47.324;18.792;2022-10-16T11:01:40;1011.92;;;22.44;44.58
54144;BME280;40050;47.324;18.792;2022-10-16T11:04:13;1011.89;;;22.54;44.58
54144;BME280;40050;47.324;18.792;2022-10-16T11:06:20;1011.84;;;22.58;44.68
54144;BME280;40050;47.324;18.792;2022-10-16T11:08:27;1011.89;;;22.66;43.91
54144;BME280;40050;47.324;18.792;2022-10-16T11:11:16;1011.84;;;22.44;44.46
54144;BME280;40050;47.324;18.792;2022-10-16T11:12:48;1011.85;;;22.40;44.88
54144;BME280;40050;47.324;18.792;2022-10-16T11:15:02;1011.76;;;22.57;44.80
54144;BME280;40050;47.324;18.792;2022-10-16T11:17:09;1011.87;;;22.39;44.65